Time;durP1;ratioP1;P1;durP2;ratioP2;P2;SDS_P1;SDS_P2;PMS_P1;PMS_P2;Temp;Humidity;BMP_temperature;BMP_pressure;BME280_temperature;BME280_humidity;BME280_pressure;Samples;Min_cycle;Max_cycle;Signal;HPM_P1;HPM_P2
2023/09/10 00:00:27;;;;;;;18.05;12.70;;;;;;;;;;6349113;28;20695;-79
2023/09/10 00:03:29;;;;;;;16.05;12.32;;;;;;;;;;6349946;28;20044;-78
2023/09/10 00:06:32;;;;;;;20.35;12.75;;;;;;;;;;6348376;28;20056;-77
2023/09/10 00:09:34;;;;;;;17.40;12.52;;;;;;;;;;6346774;28;20088;-77
2023/09/10 00:12:36;;;;;;;23.10;13.95;;;;;;;;;;6350674;28;20071;-77
2023/09/10 00:15:39;;;;;;;19.63;12.60;;;;;;;;;;6348501;28;20111;-78
2023/09/10 00:18:44;;;;;;;19.77;12.77;;;;;;;;;;6346137;28;20062;-77
2023/09/10 00:21:46;;;;;;;19.88;13.52;;;;;;;;;;6347265;28;20088;-78
2023/09/10 00:24:48;;;;;;;17.27;11.40;;;;;;;;;;6347388;28;20075;-78
2023/09/10 00:27:50;;;;;;;19.50;13.82;;;;;;;;;;6342964;28;20231;-79
2023/09/10 00:30:56;;;;;;;19.48;12.80;;;;;;;;;;6346002;28;20066;-77
2023/09/10 00:33:58;;;;;;;19.90;11.57;;;;;;;;;;6349080;28;20062;-78
2023/09/10 00:37:03;;;;;;;17.10;13.98;;;;;;;;;;6348634;28;20227;-77
2023/09/10 00:40:06;;;;;;;17.95;12.88;;;;;;;;;;6348135;28;20250;-77
2023/09/10 00:43:10;;;;;;;;;;;;;;;;;;6345245;27;20363;-78
2023/09/10 00:46:14;;;;;;;17.70;12.85;;;;;;;;;;6338251;28;19957;-78
2023/09/10 00:49:16;;;;;;;19.10;13.05;;;;;;;;;;6345057;28;20048;-77
2023/09/10 00:52:21;;;;;;;20.13;13.85;;;;;;;;;;6347374;28;20052;-78
2023/09/10 00:55:29;;;;;;;18.30;14.02;;;;;;;;;;6347399;28;20316;-78
2023/09/10 00:58:30;;;;;;;19.60;14.18;;;;;;;;;;6345360;28;20098;-78
2023/09/10 01:01:35;;;;;;;17.52;14.48;;;;;;;;;;6346823;28;20251;-77
2023/09/10 01:04:37;;;;;;;19.40;14.63;;;;;;;;;;6347029;28;20135;-78
2023/09/10 01:07:39;;;;;;;18.50;14.27;;;;;;;;;;6345755;28;20054;-78
2023/09/10 01:10:44;;;;;;;20.05;14.48;;;;;;;;;;6345877;28;20146;-78
2023/09/10 01:13:53;;;;;;;18.05;14.35;;;;;;;;;;6346301;28;20118;-78
2023/09/10 01:17:00;;;;;;;18.95;15.57;;;;;;;;;;6345657;28;20056;-78
2023/09/10 01:20:32;;;;;;;14.75;13.18;;;;;;;;;;6342456;28;20047;-79
2023/09/10 01:23:44;;;;;;;19.52;13.43;;;;;;;;;;6350324;28;20251;-77
2023/09/10 01:26:54;;;;;;;21.77;15.65;;;;;;;;;;6340106;28;20058;-77
2023/09/10 01:29:58;;;;;;;18.40;14.38;;;;;;;;;;6346054;28;20093;-78
2023/09/10 01:33:07;;;;;;;20.38;14.68;;;;;;;;;;6347818;28;20137;-77
2023/09/10 01:36:24;;;;;;;28.20;16.35;;;;;;;;;;6343564;28;20182;-77
2023/09/10 01:39:29;;;;;;;21.45;15.52;;;;;;;;;;6342829;28;20075;-78
2023/09/10 01:42:35;;;;;;;23.48;14.85;;;;;;;;;;6345811;28;20098;-79
2023/09/10 01:45:42;;;;;;;20.63;15.50;;;;;;;;;;6342766;28;20048;-78
2023/09/10 01:48:44;;;;;;;19.77;15.23;;;;;;;;;;6345923;28;20272;-76
2023/09/10 01:51:46;;;;;;;22.83;15.13;;;;;;;;;;6349113;28;20332;-77
2023/09/10 01:54:48;;;;;;;20.23;15.13;;;;;;;;;;6342269;28;20055;-76
2023/09/10 01:58:03;;;;;;;18.73;14.85;;;;;;;;;;6343176;28;20322;-78
2023/09/10 02:01:07;;;;;;;20.77;14.85;;;;;;;;;;6343979;28;20048;-77
2023/09/10 02:04:09;;;;;;;18.17;14.23;;;;;;;;;;6331224;28;20059;-77
2023/09/10 02:07:11;;;;;;;17.65;14.45;;;;;;;;;;6340693;27;20051;-77
2023/09/10 02:10:13;;;;;;;20.92;15.38;;;;;;;;;;6345797;28;20062;-77
2023/09/10 02:13:16;;;;;;;17.67;14.80;;;;;;;;;;6345392;28;20327;-76
2023/09/10 02:16:33;;;;;;;19.02;15.05;;;;;;;;;;6344543;28;20051;-77
2023/09/10 02:19:35;;;;;;;18.17;14.73;;;;;;;;;;6343601;28;20055;-77
2023/09/10 02:22:38;;;;;;;17.90;14.15;;;;;;;;;;6341746;28;20277;-77
2023/09/10 02:25:45;;;;;;;16.92;13.63;;;;;;;;;;6346729;28;20062;-76
2023/09/10 02:28:57;;;;;;;25.58;18.35;;;;;;;;;;6343659;28;20066;-77
2023/09/10 02:31:59;;;;;;;17.77;15.88;;;;;;;;;;6341688;28;20047;-77
2023/09/10 02:35:04;;;;;;;19.98;14.98;;;;;;;;;;6340310;28;20520;-77
2023/09/10 02:38:16;;;;;;;20.42;14.85;;;;;;;;;;6347873;28;20114;-77
2023/09/10 02:44:35;;;;;;;20.33;15.80;;;;;;;;;;6342413;28;20176;-77
2023/09/10 02:47:37;;;;;;;20.17;15.13;;;;;;;;;;6338714;28;20277;-77
2023/09/10 02:50:40;;;;;;;17.02;13.82;;;;;;;;;;6345210;28;20048;-77
2023/09/10 02:53:42;;;;;;;17.27;14.97;;;;;;;;;;6343682;28;20054;-78
2023/09/10 02:56:44;;;;;;;15.70;13.65;;;;;;;;;;6336005;28;20428;-77
2023/09/10 02:59:47;;;;;;;19.05;14.70;;;;;;;;;;6344430;28;20060;-77
2023/09/10 03:03:30;;;;;;;19.77;15.32;;;;;;;;;;6340717;28;20058;-77
2023/09/10 03:06:32;;;;;;;20.13;14.85;;;;;;;;;;6325511;28;20079;-77
2023/09/10 03:09:34;;;;;;;17.85;15.18;;;;;;;;;;6344675;28;20051;-77
2023/09/10 03:12:36;;;;;;;20.13;14.57;;;;;;;;;;6343159;27;20583;-77
2023/09/10 03:15:39;;;;;;;15.93;13.70;;;;;;;;;;6341457;28;20364;-78
2023/09/10 03:18:41;;;;;;;19.42;15.38;;;;;;;;;;6340873;28;20130;-77
2023/09/10 03:21:43;;;;;;;16.20;14.50;;;;;;;;;;6341712;28;20255;-78
2023/09/10 03:24:44;;;;;;;20.60;15.43;;;;;;;;;;6350944;27;20055;-77
2023/09/10 03:27:46;;;;;;;21.08;14.65;;;;;;;;;;6348118;28;20072;-77
2023/09/10 03:30:49;;;;;;;19.65;15.32;;;;;;;;;;6337510;28;20348;-77
2023/09/10 03:33:54;;;;;;;20.67;14.25;;;;;;;;;;6350461;28;20059;-76
2023/09/10 03:36:57;;;;;;;19.05;14.43;;;;;;;;;;6342745;28;20235;-77
2023/09/10 03:40:01;;;;;;;19.00;14.13;;;;;;;;;;6340177;28;20071;-77
2023/09/10 03:43:03;;;;;;;18.45;14.73;;;;;;;;;;6349667;28;20039;-77
2023/09/10 03:46:06;;;;;;;17.13;14.55;;;;;;;;;;6348009;28;20058;-77
2023/09/10 03:49:08;;;;;;;18.65;15.90;;;;;;;;;;6349101;28;20054;-77
2023/09/10 03:52:49;;;;;;;18.20;15.05;;;;;;;;;;6330095;28;20056;-76
2023/09/10 03:55:51;;;;;;;17.98;14.15;;;;;;;;;;6347209;28;20055;-76
2023/09/10 03:58:53;;;;;;;19.35;14.63;;;;;;;;;;6337843;28;20363;-77
2023/09/10 04:01:59;;;;;;;16.92;13.70;;;;;;;;;;6348039;28;20358;-77
2023/09/10 04:05:01;;;;;;;22.30;14.93;;;;;;;;;;6343345;28;20343;-77
2023/09/10 04:08:04;;;;;;;16.27;12.93;;;;;;;;;;6346843;28;20054;-77
2023/09/10 04:11:08;;;;;;;22.50;13.88;;;;;;;;;;6347913;28;20107;-78
2023/09/10 04:14:10;;;;;;;19.88;14.77;;;;;;;;;;6346143;28;20067;-78
2023/09/10 04:17:16;;;;;;;19.58;13.68;;;;;;;;;;6346383;28;20079;-78
2023/09/10 04:20:19;;;;;;;19.13;13.77;;;;;;;;;;6347717;28;20111;-76
2023/09/10 04:23:52;;;;;;;19.38;14.30;;;;;;;;;;6345884;28;20040;-77
2023/09/10 04:26:54;;;;;;;21.50;14.85;;;;;;;;;;6347782;28;20044;-77
2023/09/10 04:29:57;;;;;;;18.85;14.00;;;;;;;;;;6344583;28;20047;-78
2023/09/10 04:34:00;;;;;;;20.55;14.30;;;;;;;;;;6329876;28;20078;-77
2023/09/10 04:37:13;;;;;;;22.48;14.18;;;;;;;;;;6339189;28;20066;-78
2023/09/10 04:40:24;;;;;;;18.50;14.15;;;;;;;;;;6325842;28;20128;-77
2023/09/10 04:43:32;;;;;;;16.95;14.93;;;;;;;;;;6346346;28;20083;-77
2023/09/10 04:46:35;;;;;;;16.48;13.57;;;;;;;;;;6340683;28;20105;-77
2023/09/10 04:49:37;;;;;;;18.35;13.95;;;;;;;;;;6344186;28;20048;-77
2023/09/10 04:52:41;;;;;;;17.02;13.88;;;;;;;;;;6348393;28;20055;-77
2023/09/10 04:55:43;;;;;;;19.33;13.77;;;;;;;;;;6343206;28;20083;-77
2023/09/10 04:58:48;;;;;;;17.52;13.15;;;;;;;;;;6342313;28;20060;-78
2023/09/10 05:02:05;;;;;;;17.83;13.27;;;;;;;;;;6345649;28;20669;-77
2023/09/10 05:05:07;;;;;;;19.20;13.45;;;;;;;;;;6338773;28;20110;-77
2023/09/10 05:08:14;;;;;;;21.92;13.18;;;;;;;;;;6346134;28;20352;-78
2023/09/10 05:11:17;;;;;;;15.18;13.32;;;;;;;;;;6344739;28;20290;-77
2023/09/10 05:14:19;;;;;;;15.13;13.60;;;;;;;;;;6343208;28;20052;-77
2023/09/10 05:17:21;;;;;;;17.20;13.70;;;;;;;;;;6345450;28;20384;-78
2023/09/10 05:20:22;;;;;;;18.77;13.20;;;;;;;;;;6342648;28;20298;-77
2023/09/10 05:23:27;;;;;;;20.42;14.07;;;;;;;;;;6349859;28;20044;-77
2023/09/10 05:26:29;;;;;;;19.17;14.30;;;;;;;;;;6343034;28;20344;-77
2023/09/10 05:29:31;;;;;;;17.10;13.10;;;;;;;;;;6344298;28;20154;-78
2023/09/10 05:32:35;;;;;;;19.25;12.70;;;;;;;;;;6343150;28;20079;-78
2023/09/10 05:35:39;;;;;;;28.38;13.38;;;;;;;;;;6346894;27;20881;-77
2023/09/10 05:38:42;;;;;;;26.45;13.82;;;;;;;;;;6321175;28;20068;-78
2023/09/10 05:41:44;;;;;;;19.40;13.43;;;;;;;;;;6317646;28;20268;-78
2023/09/10 05:44:46;;;;;;;15.88;12.55;;;;;;;;;;6318505;28;20268;-78
2023/09/10 05:47:48;;;;;;;17.60;12.98;;;;;;;;;;6316440;28;20048;-78
2023/09/10 05:50:50;;;;;;;15.30;12.50;;;;;;;;;;6322265;28;20495;-77
2023/09/10 05:53:53;;;;;;;17.38;12.93;;;;;;;;;;6319327;28;20067;-77
2023/09/10 05:56:56;;;;;;;;;;;;;;;;;;6317067;28;20048;-78
2023/09/10 05:59:58;;;;;;;20.45;12.95;;;;;;;;;;6319434;28;19925;-77
2023/09/10 06:03:00;;;;;;;17.00;12.93;;;;;;;;;;6318071;28;20218;-77
2023/09/10 06:06:02;;;;;;;17.67;12.48;;;;;;;;;;6296961;28;20044;-77
2023/09/10 06:09:16;;;;;;;18.20;12.32;;;;;;;;;;6309265;28;20095;-78
2023/09/10 06:12:17;;;;;;;15.88;12.07;;;;;;;;;;6294557;28;20048;-77
2023/09/10 06:15:19;;;;;;;17.90;12.57;;;;;;;;;;6312424;28;20098;-77
2023/09/10 06:18:22;;;;;;;16.05;12.05;;;;;;;;;;6313979;28;20556;-77
2023/09/10 06:21:24;;;;;;;20.70;13.87;;;;;;;;;;6316810;28;20075;-77
2023/09/10 06:24:31;;;;;;;15.38;11.77;;;;;;;;;;6308394;28;20059;-78
2023/09/10 06:27:51;;;;;;;19.10;12.68;;;;;;;;;;6315033;28;20071;-77
2023/09/10 06:30:53;;;;;;;16.08;11.70;;;;;;;;;;6316653;28;20052;-77
2023/09/10 06:33:58;;;;;;;13.20;11.75;;;;;;;;;;6314972;28;20061;-77
2023/09/10 06:37:00;;;;;;;13.40;11.68;;;;;;;;;;6330464;28;20043;-77
2023/09/10 06:40:04;;;;;;;12.80;11.25;;;;;;;;;;6344551;28;20441;-77
2023/09/10 06:43:08;;;;;;;14.63;10.93;;;;;;;;;;6344126;28;20047;-77
2023/09/10 06:46:10;;;;;;;13.73;11.85;;;;;;;;;;6332552;28;20046;-77
2023/09/10 06:49:15;;;;;;;12.52;10.45;;;;;;;;;;6344348;28;20168;-78
2023/09/10 06:52:18;;;;;;;12.82;10.80;;;;;;;;;;6331410;28;20303;-78
2023/09/10 06:55:23;;;;;;;15.00;11.25;;;;;;;;;;6315231;28;20055;-77
2023/09/10 06:58:25;;;;;;;13.27;10.93;;;;;;;;;;6317879;28;20097;-77
2023/09/10 07:01:27;;;;;;;14.73;11.45;;;;;;;;;;6315688;28;20352;-78
2023/09/10 07:04:30;;;;;;;;;;;;;;;;;;6292367;28;20244;-77
2023/09/10 07:07:32;;;;;;;13.77;10.35;;;;;;;;;;6286227;28;19928;-77
2023/09/10 07:10:35;;;;;;;11.27;9.75;;;;;;;;;;6291995;28;20072;-77
2023/09/10 07:13:37;;;;;;;12.80;10.18;;;;;;;;;;6289003;28;20127;-77
2023/09/10 07:16:39;;;;;;;12.80;10.45;;;;;;;;;;6291286;28;20065;-77
2023/09/10 07:19:41;;;;;;;14.23;10.93;;;;;;;;;;6293335;28;20057;-77
2023/09/10 07:22:49;;;;;;;15.20;10.77;;;;;;;;;;6292427;28;20351;-77
2023/09/10 07:25:52;;;;;;;11.60;9.95;;;;;;;;;;6291953;28;20061;-77
2023/09/10 07:28:59;;;;;;;11.65;9.38;;;;;;;;;;6293712;28;20108;-78
2023/09/10 07:32:01;;;;;;;18.75;11.88;;;;;;;;;;6289523;28;20064;-78
2023/09/10 07:35:16;;;;;;;12.52;10.30;;;;;;;;;;6292559;28;20659;-77
2023/09/10 07:38:19;;;;;;;13.63;10.40;;;;;;;;;;6312922;28;20120;-78
2023/09/10 07:41:22;;;;;;;13.00;9.48;;;;;;;;;;6315699;28;20662;-77
2023/09/10 07:44:24;;;;;;;13.88;10.38;;;;;;;;;;6315436;28;20051;-78
2023/09/10 07:47:26;;;;;;;13.77;11.00;;;;;;;;;;6318087;28;20043;-79
2023/09/10 07:50:28;;;;;;;16.57;11.37;;;;;;;;;;6320800;28;20138;-80
2023/09/10 07:53:30;;;;;;;13.23;11.83;;;;;;;;;;6319942;28;20083;-77
2023/09/10 07:56:34;;;;;;;13.85;10.63;;;;;;;;;;6316623;28;20585;-78
2023/09/10 07:59:36;;;;;;;14.50;12.30;;;;;;;;;;6319301;28;20315;-77
2023/09/10 08:02:38;;;;;;;13.87;12.13;;;;;;;;;;6320925;28;20044;-78
2023/09/10 08:05:42;;;;;;;13.57;12.23;;;;;;;;;;6323125;28;20072;-78
2023/09/10 08:08:44;;;;;;;16.83;12.70;;;;;;;;;;6310422;28;20055;-78
2023/09/10 08:11:47;;;;;;;19.10;13.60;;;;;;;;;;6319377;28;20048;-78
2023/09/10 08:14:49;;;;;;;18.67;14.07;;;;;;;;;;6319116;28;20059;-78
2023/09/10 08:17:54;;;;;;;19.45;15.55;;;;;;;;;;6321480;28;20114;-78
2023/09/10 08:20:56;;;;;;;18.48;15.13;;;;;;;;;;6319705;28;20055;-78
2023/09/10 08:23:58;;;;;;;20.80;16.63;;;;;;;;;;6319824;28;20420;-78
2023/09/10 08:27:03;;;;;;;22.80;16.58;;;;;;;;;;6320134;28;20056;-78
2023/09/10 08:30:07;;;;;;;19.17;15.02;;;;;;;;;;6316397;28;20049;-78
2023/09/10 08:33:09;;;;;;;18.52;15.70;;;;;;;;;;6318066;28;20052;-78
2023/09/10 08:36:38;;;;;;;19.73;17.38;;;;;;;;;;6312551;28;20056;-78
2023/09/10 08:43:16;;;;;;;19.90;15.77;;;;;;;;;;6289193;28;20057;-78
2023/09/10 08:46:19;;;;;;;18.10;16.15;;;;;;;;;;6298236;28;20335;-78
2023/09/10 08:49:21;;;;;;;23.45;18.60;;;;;;;;;;6296471;28;20053;-77
2023/09/10 08:52:24;;;;;;;23.63;18.05;;;;;;;;;;6298201;28;20056;-79
2023/09/10 08:55:29;;;;;;;21.60;16.38;;;;;;;;;;6296558;28;20051;-78
2023/09/10 08:58:39;;;;;;;18.52;14.95;;;;;;;;;;6295662;28;20094;-78
2023/09/10 09:01:56;;;;;;;17.77;15.98;;;;;;;;;;6297192;28;20111;-78
2023/09/10 09:05:13;;;;;;;17.58;15.80;;;;;;;;;;6294570;28;20359;-78
2023/09/10 09:08:16;;;;;;;20.30;17.52;;;;;;;;;;6294362;28;20047;-78
2023/09/10 09:11:18;;;;;;;24.73;16.55;;;;;;;;;;6299246;28;20088;-78
2023/09/10 09:18:15;;;;;;;20.25;16.60;;;;;;;;;;6285093;28;20057;-78
2023/09/10 09:21:19;;;;;;;18.95;16.67;;;;;;;;;;6276325;28;20053;-78
2023/09/10 09:24:37;;;;;;;20.35;15.65;;;;;;;;;;6291136;28;20126;-79
2023/09/10 09:27:42;;;;;;;20.58;18.08;;;;;;;;;;6284694;28;20097;-79
2023/09/10 09:31:03;;;;;;;21.58;18.40;;;;;;;;;;6293449;28;20064;-79
2023/09/10 09:34:15;;;;;;;18.83;16.85;;;;;;;;;;6292369;28;20325;-78
2023/09/10 09:37:26;;;;;;;16.63;14.17;;;;;;;;;;6302520;28;20375;-78
2023/09/10 09:40:29;;;;;;;18.25;16.35;;;;;;;;;;6320897;28;20059;-78
2023/09/10 09:43:34;;;;;;;17.00;14.10;;;;;;;;;;6321846;28;20036;-79
2023/09/10 09:46:37;;;;;;;16.00;13.30;;;;;;;;;;6317990;28;20053;-78
2023/09/10 09:49:57;;;;;;;20.25;16.98;;;;;;;;;;6318891;28;20063;-79
2023/09/10 09:53:10;;;;;;;21.33;17.38;;;;;;;;;;6319620;28;20119;-78
2023/09/10 09:56:12;;;;;;;15.02;13.18;;;;;;;;;;6291453;28;20376;-79
2023/09/10 09:59:37;;;;;;;18.92;14.73;;;;;;;;;;6310025;28;20587;-79
2023/09/10 10:02:41;;;;;;;19.42;14.73;;;;;;;;;;6320048;28;20044;-79
2023/09/10 10:06:04;;;;;;;19.55;15.38;;;;;;;;;;6318456;28;20340;-79
2023/09/10 10:09:08;;;;;;;18.45;16.35;;;;;;;;;;6303784;28;20076;-80
2023/09/10 10:13:05;;;;;;;14.73;13.23;;;;;;;;;;6303485;28;20108;-79
2023/09/10 10:16:25;;;;;;;18.80;15.32;;;;;;;;;;6316478;28;20052;-80
2023/09/10 10:20:06;;;;;;;15.38;12.77;;;;;;;;;;6318594;28;20271;-79
2023/09/10 10:23:09;;;;;;;16.88;14.25;;;;;;;;;;6316830;28;20046;-79
2023/09/10 10:26:14;;;;;;;18.48;15.95;;;;;;;;;;6317413;28;20336;-80
2023/09/10 10:29:16;;;;;;;17.35;14.98;;;;;;;;;;6321156;28;20063;-78
2023/09/10 10:32:23;;;;;;;17.67;15.82;;;;;;;;;;6317885;28;20052;-79
2023/09/10 10:38:52;;;;;;;21.85;16.85;;;;;;;;;;6221028;28;20051;-78
2023/09/10 10:41:55;;;;;;;14.95;12.98;;;;;;;;;;6224771;28;20057;-79
2023/09/10 10:45:01;;;;;;;14.40;11.32;;;;;;;;;;6221467;28;20050;-78
2023/09/10 10:48:15;;;;;;;19.48;15.45;;;;;;;;;;6217233;28;20117;-79
2023/09/10 10:51:17;;;;;;;21.23;15.48;;;;;;;;;;6217834;28;20053;-80
2023/09/10 10:54:21;;;;;;;15.27;13.73;;;;;;;;;;6222267;28;20053;-78
2023/09/10 10:57:29;;;;;;;16.25;12.20;;;;;;;;;;6221726;28;20120;-79
2023/09/10 11:00:31;;;;;;;17.15;15.15;;;;;;;;;;6220026;28;20211;-78
2023/09/10 11:03:55;;;;;;;16.42;12.75;;;;;;;;;;6211975;28;20184;-78
2023/09/10 11:07:34;;;;;;;17.92;15.60;;;;;;;;;;6240428;28;20057;-79
2023/09/10 11:11:25;;;;;;;14.13;12.68;;;;;;;;;;6285889;28;20041;-78
2023/09/10 11:14:29;;;;;;;18.52;13.43;;;;;;;;;;6207887;28;20127;-78
2023/09/10 11:25:02;;;;;;;14.00;12.38;;;;;;;;;;6198983;28;20149;-79
2023/09/10 11:28:04;;;;;;;17.15;14.70;;;;;;;;;;6151611;28;20107;-78
2023/09/10 11:31:52;;;;;;;15.45;13.65;;;;;;;;;;6153676;28;20077;-78
2023/09/10 11:35:28;;;;;;;20.23;13.70;;;;;;;;;;6144112;28;20058;-78
2023/09/10 11:38:32;;;;;;;16.45;14.88;;;;;;;;;;6143697;28;20063;-79
2023/09/10 11:41:51;;;;;;;13.60;11.00;;;;;;;;;;6134240;29;20159;-79
2023/09/10 11:44:55;;;;;;;16.88;12.70;;;;;;;;;;6132887;29;20259;-78
2023/09/10 11:48:01;;;;;;;16.67;15.00;;;;;;;;;;6132892;29;20060;-79
2023/09/10 11:51:03;;;;;;;17.95;14.65;;;;;;;;;;6166551;28;20054;-78
2023/09/10 11:57:21;;;;;;;17.65;15.40;;;;;;;;;;6221793;28;20082;-78
2023/09/10 12:00:23;;;;;;;;;;;;;;;;;;6223327;28;20177;-78
2023/09/10 12:07:28;;;;;;;;;;;;;;;;;;;;;
2023/09/10 12:10:30;;;;;;;13.52;11.40;;;;;;;;;;6272601;28;20052;-78
2023/09/10 12:13:33;;;;;;;14.73;13.23;;;;;;;;;;6298605;28;20221;-79
2023/09/10 12:16:53;;;;;;;16.55;14.95;;;;;;;;;;6296877;28;20125;-78
2023/09/10 12:25:03;;;;;;;14.23;12.05;;;;;;;;;;6191483;28;20042;-78
2023/09/10 12:28:06;;;;;;;11.77;10.68;;;;;;;;;;6215273;28;20054;-79
2023/09/10 12:31:09;;;;;;;14.10;12.70;;;;;;;;;;6221160;28;20101;-79
2023/09/10 12:34:29;;;;;;;12.35;11.20;;;;;;;;;;6220352;28;20107;-79
2023/09/10 12:37:35;;;;;;;12.80;11.50;;;;;;;;;;6216451;28;20064;-79
2023/09/10 12:40:38;;;;;;;13.00;11.60;;;;;;;;;;6218763;28;20273;-78
2023/09/10 12:43:52;;;;;;;13.73;12.20;;;;;;;;;;6211438;28;20137;-79
2023/09/10 12:47:00;;;;;;;12.88;10.30;;;;;;;;;;6209965;28;20057;-79
2023/09/10 12:54:46;;;;;;;12.77;11.48;;;;;;;;;;6230154;28;20045;-79
2023/09/10 12:57:55;;;;;;;13.18;11.88;;;;;;;;;;6278960;28;20303;-79
2023/09/10 13:01:27;;;;;;;11.02;9.93;;;;;;;;;;6283786;28;20059;-78
2023/09/10 13:04:29;;;;;;;12.10;10.90;;;;;;;;;;6292260;28;20099;-80
2023/09/10 13:08:21;;;;;;;15.35;13.85;;;;;;;;;;6280306;28;20043;-78
2023/09/10 13:11:42;;;;;;;13.00;11.68;;;;;;;;;;6294475;28;20048;-79
2023/09/10 13:14:45;;;;;;;14.68;12.40;;;;;;;;;;6285815;28;20053;-79
2023/09/10 13:17:47;;;;;;;13.05;11.75;;;;;;;;;;6292044;28;21932;-78
2023/09/10 13:20:52;;;;;;;12.13;10.68;;;;;;;;;;6298013;28;20061;-79
2023/09/10 13:23:56;;;;;;;11.68;9.63;;;;;;;;;;6281087;28;20056;-79
2023/09/10 13:26:59;;;;;;;12.80;11.18;;;;;;;;;;6288860;28;20052;-78
2023/09/10 13:30:01;;;;;;;15.07;12.18;;;;;;;;;;6287573;28;20072;-79
2023/09/10 13:33:03;;;;;;;13.63;9.40;;;;;;;;;;6297524;28;20056;-79
2023/09/10 13:36:06;;;;;;;13.60;9.77;;;;;;;;;;6279390;28;20072;-78
2023/09/10 13:39:15;;;;;;;10.07;9.18;;;;;;;;;;6279488;28;20151;-78
2023/09/10 13:42:19;;;;;;;12.18;10.55;;;;;;;;;;6293126;28;20333;-79
2023/09/10 13:45:29;;;;;;;13.80;12.50;;;;;;;;;;6280394;28;20091;-79
2023/09/10 13:48:31;;;;;;;13.15;11.90;;;;;;;;;;6280536;28;20083;-79
2023/09/10 13:51:33;;;;;;;12.23;11.07;;;;;;;;;;6291208;28;20131;-78
2023/09/10 13:59:13;;;;;;;13.88;10.27;;;;;;;;;;6286905;28;20089;-78
2023/09/10 14:02:51;;;;;;;12.35;10.38;;;;;;;;;;6293531;28;20063;-79
2023/09/10 14:05:54;;;;;;;13.35;11.38;;;;;;;;;;6277562;28;20060;-79
2023/09/10 14:08:56;;;;;;;12.57;11.30;;;;;;;;;;6296409;28;20328;-78
2023/09/10 14:12:01;;;;;;;13.77;10.20;;;;;;;;;;6294564;28;20049;-79
2023/09/10 14:15:09;;;;;;;13.50;8.95;;;;;;;;;;6282491;28;20098;-79
2023/09/10 14:18:17;;;;;;;13.38;12.18;;;;;;;;;;6281665;28;20067;-78
2023/09/10 14:21:21;;;;;;;10.50;9.38;;;;;;;;;;6291795;28;20048;-78
2023/09/10 14:24:25;;;;;;;10.98;9.43;;;;;;;;;;6295073;28;20132;-79
2023/09/10 14:31:24;;;;;;;10.90;9.20;;;;;;;;;;6198557;28;20290;-79
2023/09/10 14:37:51;;;;;;;12.95;10.10;;;;;;;;;;6192849;28;20066;-80
2023/09/10 14:41:07;;;;;;;8.50;7.72;;;;;;;;;;6191101;28;20058;-79
2023/09/10 14:44:10;;;;;;;9.77;8.88;;;;;;;;;;6184167;28;20068;-80
2023/09/10 14:50:45;;;;;;;11.32;10.07;;;;;;;;;;6216494;28;20392;-78
2023/09/10 14:53:49;;;;;;;10.73;9.68;;;;;;;;;;6202679;28;20109;-78
2023/09/10 14:56:56;;;;;;;13.68;10.93;;;;;;;;;;6214438;28;20046;-78
2023/09/10 15:00:01;;;;;;;12.00;10.50;;;;;;;;;;6215638;28;20231;-78
2023/09/10 15:03:05;;;;;;;10.05;9.15;;;;;;;;;;6217026;28;20053;-79
2023/09/10 15:09:43;;;;;;;10.35;9.15;;;;;;;;;;6269654;28;20087;-78
2023/09/10 15:13:00;;;;;;;10.68;9.32;;;;;;;;;;6291524;28;20044;-79
2023/09/10 15:16:39;;;;;;;10.93;9.75;;;;;;;;;;6287999;28;20059;-79
2023/09/10 15:19:50;;;;;;;12.63;9.73;;;;;;;;;;6190177;28;20090;-78
2023/09/10 15:22:52;;;;;;;10.63;9.52;;;;;;;;;;6191907;28;20061;-78
2023/09/10 15:25:54;;;;;;;13.20;9.73;;;;;;;;;;6190388;28;20063;-79
2023/09/10 15:28:55;;;;;;;11.50;10.40;;;;;;;;;;6197111;28;20073;-78
2023/09/10 15:32:00;;;;;;;11.43;10.18;;;;;;;;;;6193068;28;20050;-79
2023/09/10 15:35:03;;;;;;;9.85;8.85;;;;;;;;;;6191688;28;20055;-78
2023/09/10 15:38:14;;;;;;;13.00;9.80;;;;;;;;;;6192406;28;20054;-79
2023/09/10 15:41:16;;;;;;;10.40;9.50;;;;;;;;;;6193783;28;20062;-78
2023/09/10 15:44:27;;;;;;;11.35;10.05;;;;;;;;;;6182841;28;20102;-79
2023/09/10 15:50:49;;;;;;;10.32;9.40;;;;;;;;;;6253010;28;20048;-78
2023/09/10 15:53:51;;;;;;;11.85;9.38;;;;;;;;;;6292049;28;20054;-78
2023/09/10 15:56:56;;;;;;;14.85;9.70;;;;;;;;;;6289878;28;20119;-78
2023/09/10 15:59:58;;;;;;;10.85;9.82;;;;;;;;;;6294592;28;20112;-79
2023/09/10 16:03:00;;;;;;;11.85;9.55;;;;;;;;;;6294941;28;20045;-80
2023/09/10 16:06:04;;;;;;;10.77;9.40;;;;;;;;;;6290233;28;20071;-78
2023/09/10 16:09:06;;;;;;;10.90;9.80;;;;;;;;;;6295780;28;20083;-78
2023/09/10 16:12:08;;;;;;;11.43;10.25;;;;;;;;;;6292007;28;20057;-78
2023/09/10 16:15:24;;;;;;;10.68;9.02;;;;;;;;;;6292383;28;20064;-78
2023/09/10 16:18:26;;;;;;;11.02;9.95;;;;;;;;;;6282454;28;20056;-78
2023/09/10 16:21:30;;;;;;;18.27;8.82;;;;;;;;;;6292001;28;20053;-78
2023/09/10 16:25:19;;;;;;;9.00;8.07;;;;;;;;;;6291726;28;20041;-78
2023/09/10 16:28:41;;;;;;;12.27;9.27;;;;;;;;;;6188399;28;20402;-78
2023/09/10 16:31:43;;;;;;;10.10;8.77;;;;;;;;;;6166198;28;20059;-79
2023/09/10 16:34:45;;;;;;;10.13;9.13;;;;;;;;;;6198038;28;20057;-78
2023/09/10 16:37:49;;;;;;;14.02;10.18;;;;;;;;;;6197634;28;20066;-78
2023/09/10 16:41:08;;;;;;;12.10;10.38;;;;;;;;;;6195208;28;20354;-78
2023/09/10 16:44:15;;;;;;;14.52;9.80;;;;;;;;;;6195691;28;20050;-79
2023/09/10 16:47:23;;;;;;;10.68;9.18;;;;;;;;;;6193735;28;20077;-78
2023/09/10 16:50:25;;;;;;;11.63;10.15;;;;;;;;;;6176318;28;20317;-79
2023/09/10 16:53:58;;;;;;;21.50;10.55;;;;;;;;;;6195703;28;20089;-78
2023/09/10 16:57:00;;;;;;;16.15;11.95;;;;;;;;;;6190387;28;20346;-79
2023/09/10 17:00:03;;;;;;;11.82;9.85;;;;;;;;;;6196360;28;20047;-78
2023/09/10 17:03:05;;;;;;;11.43;9.50;;;;;;;;;;6221624;28;20441;-78
2023/09/10 17:06:07;;;;;;;;;;;;;;;;;;6294442;28;20052;-78
2023/09/10 17:09:10;;;;;;;12.63;10.52;;;;;;;;;;6293261;28;19916;-78
2023/09/10 17:12:12;;;;;;;11.85;9.68;;;;;;;;;;6285349;28;20298;-79
2023/09/10 17:15:27;;;;;;;15.18;9.70;;;;;;;;;;6292676;28;20049;-78
2023/09/10 17:22:04;;;;;;;10.95;9.75;;;;;;;;;;6275922;28;20111;-78
2023/09/10 17:25:11;;;;;;;10.88;9.77;;;;;;;;;;6294026;28;20061;-78
2023/09/10 17:28:18;;;;;;;15.32;9.93;;;;;;;;;;6295995;28;20095;-78
2023/09/10 17:31:24;;;;;;;10.43;9.02;;;;;;;;;;6295823;28;20251;-78
2023/09/10 17:34:26;;;;;;;14.05;9.85;;;;;;;;;;6288613;28;20085;-79
2023/09/10 17:37:28;;;;;;;13.27;10.10;;;;;;;;;;6297621;28;20049;-78
2023/09/10 17:41:07;;;;;;;11.98;9.77;;;;;;;;;;6320191;28;20403;-78
2023/09/10 17:44:09;;;;;;;12.55;9.25;;;;;;;;;;6312665;28;20052;-79
2023/09/10 17:47:27;;;;;;;11.97;9.97;;;;;;;;;;6319370;28;20048;-78
2023/09/10 18:02:41;;;;;;;14.00;10.50;;;;;;;;;;6219738;28;20339;-79
2023/09/10 18:05:53;;;;;;;14.63;10.02;;;;;;;;;;6281766;28;20104;-79
2023/09/10 18:08:59;;;;;;;13.30;9.52;;;;;;;;;;6319011;28;20056;-77
2023/09/10 18:20:12;;;;;;;11.65;10.45;;;;;;;;;;6173042;28;20228;-79
2023/09/10 18:23:34;;;;;;;12.55;10.50;;;;;;;;;;6142309;28;20040;-78
2023/09/10 18:30:49;;;;;;;10.25;9.07;;;;;;;;;;6098687;28;20046;-78
2023/09/10 18:34:07;;;;;;;11.65;10.27;;;;;;;;;;6170476;28;20413;-78
2023/09/10 19:16:37;;;;;;;14.82;11.75;;;;;;;;;;5988964;29;20041;-78
2023/09/10 19:20:01;;;;;;;12.82;10.65;;;;;;;;;;6017150;29;20154;-77
2023/09/10 19:23:13;;;;;;;;;;;;;;;;;;;;;
2023/09/10 19:26:24;;;;;;;22.67;12.37;;;;;;;;;;6051989;29;20063;-78
2023/09/10 19:30:15;;;;;;;19.58;11.52;;;;;;;;;;6098235;29;20579;-78
2023/09/10 19:33:25;;;;;;;16.77;11.93;;;;;;;;;;6177431;28;20287;-78
2023/09/10 19:36:35;;;;;;;20.17;12.65;;;;;;;;;;6198979;28;20126;-78
2023/09/10 19:39:38;;;;;;;16.17;12.27;;;;;;;;;;6210036;28;20050;-78
2023/09/10 19:50:06;;;;;;;23.52;12.25;;;;;;;;;;6253264;28;20064;-78
2023/09/10 19:53:16;;;;;;;16.27;11.95;;;;;;;;;;6263744;28;20058;-79
2023/09/10 19:56:21;;;;;;;19.45;12.35;;;;;;;;;;6262169;28;20057;-78
2023/09/10 20:02:51;;;;;;;14.13;11.80;;;;;;;;;;6267123;28;20225;-78
2023/09/10 21:14:59;;;;;;;28.10;18.45;;;;;;;;;;6319342;27;20557;-84
2023/09/10 21:18:01;;;;;;;26.08;18.67;;;;;;;;;;6263203;28;20041;-83
2023/09/10 21:21:04;;;;;;;29.27;19.95;;;;;;;;;;6265482;28;20064;-82
2023/09/10 21:24:08;;;;;;;29.07;18.50;;;;;;;;;;6266210;28;20064;-82
2023/09/10 21:28:01;;;;;;;25.77;18.00;;;;;;;;;;6288015;28;20049;-86
2023/09/10 21:35:40;;;;;;;25.88;17.27;;;;;;;;;;6157394;28;20117;-84
2023/09/10 21:38:57;;;;;;;22.65;16.83;;;;;;;;;;6175868;28;20054;-85
2023/09/10 21:41:59;;;;;;;24.55;17.45;;;;;;;;;;6175489;28;20055;-83
2023/09/10 21:45:01;;;;;;;22.03;15.83;;;;;;;;;;6186163;28;20161;-84
2023/09/10 21:48:03;;;;;;;16.60;14.77;;;;;;;;;;6174217;28;20074;-82
2023/09/10 21:51:05;;;;;;;18.77;14.27;;;;;;;;;;6186442;28;20146;-83